Time;durP1;ratioP1;P1;durP2;ratioP2;P2;SDS_P1;SDS_P2;PMS_P1;PMS_P2;Temp;Humidity;BMP_temperature;BMP_pressure;BME280_temperature;BME280_humidity;BME280_pressure;Samples;Min_cycle;Max_cycle;Signal;HPM_P1;HPM_P2
2023/04/30 00:01:32;;;;;;;8.48;7.45;;;;;;;;;;4983001;28;20108;-77
2023/04/30 00:03:57;;;;;;;8.50;7.38;;;;;;;;;;4981814;28;20022;-77
2023/04/30 00:06:22;;;;;;;8.38;7.50;;;;;;;;;;4981332;28;20025;-76
2023/04/30 00:08:48;;;;;;;10.13;7.65;;;;;;;;;;4999248;28;20113;-77
2023/04/30 00:11:13;;;;;;;8.63;7.75;;;;;;;;;;4984856;28;20061;-77
2023/04/30 00:13:38;;;;;;;8.05;7.05;;;;;;;;;;5004069;28;20415;-77
2023/04/30 00:16:04;;;;;;;11.27;7.40;;;;;;;;;;5003390;28;20030;-76
2023/04/30 00:18:29;;;;;;;8.27;7.55;;;;;;;;;;5003768;28;20180;-77
2023/04/30 00:20:54;;;;;;;8.63;7.78;;;;;;;;;;5003304;28;20030;-77
2023/04/30 00:23:20;;;;;;;11.30;6.97;;;;;;;;;;4986138;28;20057;-77
2023/04/30 00:25:45;;;;;;;10.93;8.32;;;;;;;;;;4985778;28;20033;-77
2023/04/30 00:28:10;;;;;;;11.90;9.48;;;;;;;;;;5003702;28;20028;-77
2023/04/30 00:30:36;;;;;;;10.18;8.32;;;;;;;;;;5003735;28;20024;-77
2023/04/30 00:33:01;;;;;;;7.63;6.90;;;;;;;;;;4966457;28;20026;-76
2023/04/30 00:35:26;;;;;;;7.75;6.95;;;;;;;;;;4978082;28;20026;-77
2023/04/30 00:37:51;;;;;;;10.98;8.10;;;;;;;;;;5002238;28;20034;-77
2023/04/30 00:40:17;;;;;;;9.73;7.97;;;;;;;;;;5003847;28;20439;-77
2023/04/30 00:42:42;;;;;;;7.90;7.07;;;;;;;;;;5004579;28;20049;-78
2023/04/30 00:45:07;;;;;;;6.97;6.32;;;;;;;;;;5004788;28;20467;-78
2023/04/30 00:47:33;;;;;;;8.20;7.40;;;;;;;;;;4987102;28;20076;-77
2023/04/30 00:49:58;;;;;;;7.78;6.72;;;;;;;;;;4985646;28;20041;-77
2023/04/30 00:52:24;;;;;;;7.45;6.85;;;;;;;;;;5004113;28;20747;-77
2023/04/30 00:54:52;;;;;;;9.02;7.82;;;;;;;;;;5003110;28;20030;-77
2023/04/30 00:57:19;;;;;;;8.23;7.38;;;;;;;;;;5004436;28;20022;-77
2023/04/30 00:59:45;;;;;;;7.90;7.10;;;;;;;;;;5002947;28;20080;-78
2023/04/30 01:02:10;;;;;;;8.15;6.72;;;;;;;;;;4987287;28;20025;-77
2023/04/30 01:04:36;;;;;;;8.73;7.82;;;;;;;;;;5003101;28;20014;-80
2023/04/30 01:07:02;;;;;;;8.25;7.45;;;;;;;;;;5037102;28;20014;-82
2023/04/30 01:09:27;;;;;;;9.10;7.82;;;;;;;;;;5012820;28;20028;-80
2023/04/30 01:11:53;;;;;;;8.88;6.85;;;;;;;;;;5014617;28;20016;-81
2023/04/30 01:14:18;;;;;;;8.27;6.60;;;;;;;;;;5030521;28;20550;-80
2023/04/30 01:17:04;;;;;;;9.60;7.43;;;;;;;;;;5015333;28;20018;-80
2023/04/30 01:19:39;;;;;;;7.57;6.78;;;;;;;;;;5003201;28;20034;-79
2023/04/30 01:22:06;;;;;;;9.85;7.43;;;;;;;;;;5015847;28;20389;-79
2023/04/30 01:24:35;;;;;;;7.78;7.03;;;;;;;;;;5015408;28;20112;-79
2023/04/30 01:27:06;;;;;;;7.28;6.53;;;;;;;;;;5013691;28;20034;-79
2023/04/30 01:29:33;;;;;;;8.23;7.28;;;;;;;;;;5013960;28;20497;-80
2023/04/30 01:31:58;;;;;;;7.40;6.50;;;;;;;;;;5020951;28;20506;-80
2023/04/30 01:34:24;;;;;;;11.50;6.95;;;;;;;;;;5002824;28;20022;-81
2023/04/30 01:36:56;;;;;;;9.02;6.63;;;;;;;;;;5024811;28;20204;-79
2023/04/30 01:39:25;;;;;;;7.90;7.10;;;;;;;;;;5030338;28;20034;-81
2023/04/30 01:41:56;;;;;;;10.77;6.90;;;;;;;;;;5032361;28;20148;-80
2023/04/30 01:44:37;;;;;;;7.43;6.70;;;;;;;;;;5012822;28;20476;-81
2023/04/30 01:47:02;;;;;;;10.30;6.97;;;;;;;;;;5007036;28;20033;-80
2023/04/30 01:49:43;;;;;;;7.35;6.75;;;;;;;;;;5003886;28;20042;-80
2023/04/30 01:52:16;;;;;;;7.82;7.03;;;;;;;;;;5021453;28;20781;-79
2023/04/30 01:54:50;;;;;;;7.70;7.05;;;;;;;;;;5000794;28;20018;-80
2023/04/30 01:57:19;;;;;;;7.88;7.00;;;;;;;;;;5002013;28;20025;-80
2023/04/30 01:59:44;;;;;;;8.63;7.43;;;;;;;;;;5018141;28;20032;-80
2023/04/30 02:02:09;;;;;;;8.13;6.82;;;;;;;;;;5026389;28;20530;-79
2023/04/30 02:04:35;;;;;;;10.98;7.20;;;;;;;;;;4999831;28;20157;-80
2023/04/30 02:07:00;;;;;;;9.10;6.93;;;;;;;;;;4984158;28;20022;-79
2023/04/30 02:09:25;;;;;;;10.80;7.78;;;;;;;;;;4999023;28;20503;-80
2023/04/30 02:11:51;;;;;;;7.40;6.72;;;;;;;;;;4998718;28;20025;-79
2023/04/30 02:14:16;;;;;;;9.07;7.30;;;;;;;;;;4993494;28;20032;-78
2023/04/30 02:16:41;;;;;;;8.23;7.43;;;;;;;;;;4993389;28;20081;-80
2023/04/30 02:19:07;;;;;;;8.48;7.55;;;;;;;;;;5012643;28;20057;-79
2023/04/30 02:21:32;;;;;;;8.23;7.50;;;;;;;;;;5014373;28;20056;-80
2023/04/30 02:23:57;;;;;;;7.72;6.97;;;;;;;;;;4978955;28;20034;-79
2023/04/30 02:26:23;;;;;;;8.35;7.38;;;;;;;;;;4979868;28;20041;-80
2023/04/30 02:28:48;;;;;;;10.15;7.13;;;;;;;;;;4992961;28;20022;-79
2023/04/30 02:31:13;;;;;;;8.30;7.25;;;;;;;;;;5012654;28;20507;-78
2023/04/30 02:33:38;;;;;;;9.55;7.40;;;;;;;;;;5008627;28;20060;-79
2023/04/30 02:36:04;;;;;;;11.55;8.50;;;;;;;;;;4994641;28;20041;-80
2023/04/30 02:38:29;;;;;;;9.73;7.50;;;;;;;;;;5021726;28;20049;-80
2023/04/30 02:40:55;;;;;;;8.35;7.30;;;;;;;;;;5009902;28;20030;-78
2023/04/30 02:43:20;;;;;;;7.90;7.05;;;;;;;;;;5006068;28;20032;-78
2023/04/30 02:45:45;;;;;;;8.18;7.38;;;;;;;;;;5003855;28;20018;-79
2023/04/30 02:48:10;;;;;;;9.07;6.93;;;;;;;;;;5005722;28;20053;-78
2023/04/30 02:50:36;;;;;;;8.40;6.85;;;;;;;;;;4975516;28;20053;-78
2023/04/30 02:53:01;;;;;;;9.00;7.18;;;;;;;;;;4999213;28;20025;-78
2023/04/30 02:55:27;;;;;;;7.50;6.68;;;;;;;;;;5003477;28;20025;-78
2023/04/30 02:57:52;;;;;;;7.63;6.82;;;;;;;;;;4986471;28;20076;-77
2023/04/30 03:00:17;;;;;;;9.32;7.70;;;;;;;;;;5004909;28;20029;-78
2023/04/30 03:02:43;;;;;;;8.80;7.10;;;;;;;;;;4986946;28;20050;-78
2023/04/30 03:05:08;;;;;;;7.53;6.65;;;;;;;;;;4985839;28;20022;-78
2023/04/30 03:07:33;;;;;;;6.57;6.00;;;;;;;;;;5002582;28;20022;-78
2023/04/30 03:09:59;;;;;;;7.53;6.90;;;;;;;;;;4980685;28;20022;-78
2023/04/30 03:12:24;;;;;;;7.70;6.63;;;;;;;;;;5004625;28;20042;-79
2023/04/30 03:14:49;;;;;;;8.70;6.70;;;;;;;;;;4985216;28;20024;-78
2023/04/30 03:17:15;;;;;;;8.15;7.45;;;;;;;;;;5003937;28;20018;-77
2023/04/30 03:19:40;;;;;;;12.77;11.43;;;;;;;;;;4987108;28;20038;-78
2023/04/30 03:22:06;;;;;;;12.30;11.10;;;;;;;;;;5005164;28;20766;-78
2023/04/30 03:24:31;;;;;;;10.82;8.50;;;;;;;;;;4986189;28;20018;-79
2023/04/30 03:26:57;;;;;;;8.60;6.90;;;;;;;;;;5015237;28;20026;-80
2023/04/30 03:29:22;;;;;;;9.10;6.60;;;;;;;;;;4995193;28;20072;-80
2023/04/30 03:31:47;;;;;;;7.20;6.50;;;;;;;;;;5013579;28;20057;-79
2023/04/30 03:34:13;;;;;;;7.78;6.00;;;;;;;;;;5014888;28;20076;-80
2023/04/30 03:36:38;;;;;;;8.38;7.60;;;;;;;;;;4997926;28;20021;-79
2023/04/30 03:39:04;;;;;;;8.38;7.15;;;;;;;;;;4995137;28;20097;-79
2023/04/30 03:41:29;;;;;;;8.70;7.45;;;;;;;;;;4996359;28;20028;-79
2023/04/30 03:43:54;;;;;;;8.80;7.88;;;;;;;;;;4997739;28;20026;-80
2023/04/30 03:46:20;;;;;;;10.50;8.15;;;;;;;;;;5013773;28;20042;-79
2023/04/30 03:48:45;;;;;;;14.23;9.73;;;;;;;;;;4995492;28;20587;-79
2023/04/30 03:51:10;;;;;;;10.15;8.07;;;;;;;;;;5013136;28;20499;-79
2023/04/30 03:53:36;;;;;;;11.00;8.02;;;;;;;;;;5011611;28;20503;-79
2023/04/30 03:56:02;;;;;;;11.05;8.25;;;;;;;;;;5012185;28;20399;-80
2023/04/30 03:58:28;;;;;;;20.52;12.45;;;;;;;;;;5014772;28;20122;-80
2023/04/30 04:00:53;;;;;;;33.85;16.23;;;;;;;;;;5017515;28;20018;-80
2023/04/30 04:03:19;;;;;;;45.55;22.15;;;;;;;;;;5018834;28;20061;-79
2023/04/30 04:05:44;;;;;;;12.80;9.55;;;;;;;;;;5001645;28;20048;-80
2023/04/30 04:08:10;;;;;;;8.20;6.68;;;;;;;;;;5023046;28;20017;-80
2023/04/30 04:10:35;;;;;;;20.42;10.98;;;;;;;;;;5019583;28;20026;-80
2023/04/30 04:13:00;;;;;;;36.17;15.75;;;;;;;;;;5011265;28;20124;-81
2023/04/30 04:15:26;;;;;;;11.18;8.65;;;;;;;;;;5028561;28;20034;-80
2023/04/30 04:17:51;;;;;;;23.50;11.85;;;;;;;;;;5009395;28;20065;-80
2023/04/30 04:20:16;;;;;;;22.85;12.25;;;;;;;;;;5011546;28;20018;-80
2023/04/30 04:22:42;;;;;;;61.63;28.80;;;;;;;;;;5012709;28;20476;-80
2023/04/30 04:25:08;;;;;;;59.80;33.90;;;;;;;;;;5026299;28;20459;-80
2023/04/30 04:27:33;;;;;;;23.90;15.65;;;;;;;;;;5033273;28;20025;-81
2023/04/30 04:29:59;;;;;;;10.52;7.45;;;;;;;;;;5025786;28;20038;-80
2023/04/30 04:32:24;;;;;;;7.38;6.20;;;;;;;;;;5028549;28;20034;-80
2023/04/30 04:34:49;;;;;;;29.70;14.90;;;;;;;;;;5007746;28;20018;-80
2023/04/30 04:37:16;;;;;;;48.03;23.07;;;;;;;;;;5009378;28;20050;-80
2023/04/30 04:39:41;;;;;;;40.38;23.38;;;;;;;;;;4994183;28;20303;-81
2023/04/30 04:42:07;;;;;;;46.47;30.27;;;;;;;;;;4999853;28;20014;-84
2023/04/30 04:44:32;;;;;;;25.92;20.35;;;;;;;;;;4998835;28;20105;-83
2023/04/30 04:46:57;;;;;;;11.40;10.27;;;;;;;;;;4982224;28;20022;-84
2023/04/30 04:49:23;;;;;;;14.65;9.40;;;;;;;;;;4977952;28;20046;-84
2023/04/30 04:51:48;;;;;;;10.05;8.20;;;;;;;;;;4979254;28;20029;-82
2023/04/30 04:54:13;;;;;;;6.27;5.70;;;;;;;;;;4977977;28;20022;-82
2023/04/30 04:56:39;;;;;;;7.60;6.30;;;;;;;;;;4980138;28;20026;-83
2023/04/30 04:59:04;;;;;;;10.15;9.00;;;;;;;;;;4983859;28;20026;-85
2023/04/30 05:01:29;;;;;;;8.82;8.00;;;;;;;;;;4978517;28;20560;-79
2023/04/30 05:03:55;;;;;;;13.07;9.25;;;;;;;;;;4977923;28;20022;-83
2023/04/30 05:06:20;;;;;;;10.55;9.52;;;;;;;;;;4983427;28;20514;-81
2023/04/30 05:08:46;;;;;;;15.45;11.35;;;;;;;;;;4983443;28;20046;-84
2023/04/30 05:11:11;;;;;;;14.10;9.00;;;;;;;;;;4981704;28;20040;-81
2023/04/30 05:13:36;;;;;;;9.98;7.70;;;;;;;;;;4983078;28;20550;-83
2023/04/30 05:16:01;;;;;;;9.27;7.43;;;;;;;;;;4983168;28;20018;-80
2023/04/30 05:18:27;;;;;;;10.45;6.70;;;;;;;;;;4982508;28;20073;-85
2023/04/30 05:20:52;;;;;;;10.75;8.35;;;;;;;;;;4982875;28;20547;-84
2023/04/30 05:23:17;;;;;;;12.80;9.15;;;;;;;;;;4983345;28;20031;-81
2023/04/30 05:25:43;;;;;;;6.25;5.63;;;;;;;;;;4981889;28;20065;-84
2023/04/30 05:28:08;;;;;;;5.90;5.30;;;;;;;;;;4982059;28;20022;-82
2023/04/30 05:30:34;;;;;;;5.68;5.05;;;;;;;;;;4981131;28;20038;-79
2023/04/30 05:32:59;;;;;;;6.07;5.53;;;;;;;;;;4981187;28;20110;-78
2023/04/30 05:35:24;;;;;;;5.70;5.30;;;;;;;;;;4982937;28;20806;-79
2023/04/30 05:37:50;;;;;;;6.78;6.03;;;;;;;;;;4982506;28;20316;-78
2023/04/30 05:40:15;;;;;;;8.17;7.10;;;;;;;;;;4982283;28;20022;-79
2023/04/30 05:42:44;;;;;;;7.97;7.10;;;;;;;;;;4982902;28;20701;-86
2023/04/30 05:45:13;;;;;;;8.98;6.80;;;;;;;;;;4981185;28;20116;-87
2023/04/30 05:47:40;;;;;;;8.33;7.33;;;;;;;;;;4983606;28;20050;-86
2023/04/30 05:50:06;;;;;;;9.98;6.65;;;;;;;;;;4967397;28;20364;-86
2023/04/30 05:52:36;;;;;;;8.13;6.90;;;;;;;;;;5002166;28;20495;-87
2023/04/30 05:55:02;;;;;;;6.82;6.22;;;;;;;;;;4983222;28;20033;-85
2023/04/30 05:57:27;;;;;;;7.07;6.38;;;;;;;;;;4996651;28;20018;-85
2023/04/30 05:59:53;;;;;;;7.43;6.55;;;;;;;;;;4984296;28;20026;-84
2023/04/30 06:02:18;;;;;;;7.93;6.40;;;;;;;;;;4984128;28;20100;-87
2023/04/30 06:04:43;;;;;;;7.18;6.65;;;;;;;;;;4984135;28;20136;-82
2023/04/30 06:07:09;;;;;;;12.00;7.93;;;;;;;;;;4993528;28;20037;-82
2023/04/30 06:09:34;;;;;;;8.93;8.07;;;;;;;;;;4991514;28;20010;-81
2023/04/30 06:12:01;;;;;;;8.93;8.03;;;;;;;;;;4983768;28;20105;-84
2023/04/30 06:14:26;;;;;;;8.15;7.35;;;;;;;;;;4983514;28;20245;-83
2023/04/30 06:16:52;;;;;;;9.90;6.85;;;;;;;;;;4996505;28;20498;-85
2023/04/30 06:19:17;;;;;;;8.07;7.30;;;;;;;;;;4984104;28;20042;-86
2023/04/30 06:21:43;;;;;;;8.65;7.82;;;;;;;;;;4981860;28;20122;-86
2023/04/30 06:24:08;;;;;;;8.23;7.53;;;;;;;;;;4995997;28;20026;-88
2023/04/30 06:26:34;;;;;;;8.60;7.47;;;;;;;;;;4979243;28;20117;-83
2023/04/30 06:28:59;;;;;;;7.78;7.07;;;;;;;;;;4963775;28;20161;-86
2023/04/30 06:31:25;;;;;;;7.50;6.75;;;;;;;;;;4983404;28;20054;-85
2023/04/30 06:33:51;;;;;;;8.68;7.53;;;;;;;;;;4976445;28;20065;-86
2023/04/30 06:36:17;;;;;;;8.85;7.95;;;;;;;;;;5002295;28;20563;-85
2023/04/30 06:38:42;;;;;;;9.32;8.43;;;;;;;;;;4972155;28;20076;-85
2023/04/30 06:41:08;;;;;;;9.63;8.32;;;;;;;;;;4991973;28;20058;-84
2023/04/30 06:43:33;;;;;;;8.65;7.80;;;;;;;;;;4982141;28;20036;-87
2023/04/30 06:46:08;;;;;;;9.98;9.07;;;;;;;;;;4996003;28;20022;-90
2023/04/30 06:48:37;;;;;;;15.50;9.10;;;;;;;;;;4969072;28;20045;-86
2023/04/30 06:51:03;;;;;;;44.00;11.40;;;;;;;;;;4979081;28;20145;-89
2023/04/30 06:53:28;;;;;;;10.13;9.20;;;;;;;;;;4975550;28;20491;-89
2023/04/30 06:55:54;;;;;;;11.88;9.55;;;;;;;;;;4973138;28;20572;-89
2023/04/30 06:58:19;;;;;;;10.75;8.60;;;;;;;;;;4965055;28;20038;-84
2023/04/30 07:00:45;;;;;;;10.35;9.18;;;;;;;;;;4968756;28;20021;-86
2023/04/30 07:03:10;;;;;;;12.48;9.05;;;;;;;;;;4988826;28;20890;-85
2023/04/30 07:05:35;;;;;;;9.23;8.43;;;;;;;;;;4968031;28;20153;-87
2023/04/30 07:08:02;;;;;;;9.10;8.20;;;;;;;;;;4970596;28;20053;-85
2023/04/30 07:10:27;;;;;;;10.50;8.05;;;;;;;;;;4968392;28;20022;-86
2023/04/30 07:12:53;;;;;;;8.13;7.38;;;;;;;;;;4975697;28;20033;-87
2023/04/30 07:15:18;;;;;;;9.40;8.10;;;;;;;;;;4989735;28;20611;-86
2023/04/30 07:17:43;;;;;;;9.77;8.77;;;;;;;;;;4994440;28;20304;-86
2023/04/30 07:20:09;;;;;;;11.75;8.70;;;;;;;;;;4963041;28;20229;-82
2023/04/30 07:22:34;;;;;;;10.85;9.23;;;;;;;;;;4996265;28;20040;-85
2023/04/30 07:25:00;;;;;;;11.73;8.43;;;;;;;;;;4979660;28;20044;-83
2023/04/30 07:27:28;;;;;;;12.27;9.00;;;;;;;;;;4983296;28;20017;-84
2023/04/30 07:29:54;;;;;;;12.07;8.67;;;;;;;;;;5001022;28;20466;-88
2023/04/30 07:32:19;;;;;;;8.90;8.10;;;;;;;;;;5001838;28;20033;-89
2023/04/30 07:34:45;;;;;;;6.68;6.10;;;;;;;;;;4982620;28;20036;-84
2023/04/30 07:37:10;;;;;;;10.27;7.30;;;;;;;;;;5001173;28;20026;-81
2023/04/30 07:39:37;;;;;;;8.13;6.82;;;;;;;;;;4982636;28;20045;-85
2023/04/30 07:42:02;;;;;;;8.50;6.28;;;;;;;;;;4982152;28;20021;-84
2023/04/30 07:44:28;;;;;;;7.05;5.75;;;;;;;;;;4982361;28;20128;-83
2023/04/30 07:46:53;;;;;;;6.82;5.35;;;;;;;;;;4998257;28;20036;-83
2023/04/30 07:49:19;;;;;;;6.07;4.65;;;;;;;;;;4981322;28;20080;-83
2023/04/30 07:51:44;;;;;;;6.65;5.10;;;;;;;;;;4981595;28;20021;-84
2023/04/30 07:54:09;;;;;;;6.38;5.22;;;;;;;;;;4998011;28;20503;-83
2023/04/30 07:56:35;;;;;;;6.03;5.00;;;;;;;;;;4971085;28;20030;-83
2023/04/30 07:59:00;;;;;;;6.22;5.10;;;;;;;;;;4979373;28;20076;-84
2023/04/30 08:01:25;;;;;;;7.78;5.80;;;;;;;;;;4981381;28;20407;-85
2023/04/30 08:03:51;;;;;;;8.55;6.30;;;;;;;;;;4980944;28;20033;-84
2023/04/30 08:06:16;;;;;;;7.28;5.43;;;;;;;;;;4980780;28;20022;-85
2023/04/30 08:08:41;;;;;;;6.13;4.68;;;;;;;;;;4980317;28;20022;-86
2023/04/30 08:11:07;;;;;;;7.60;4.15;;;;;;;;;;4987720;28;20026;-84
2023/04/30 08:13:32;;;;;;;5.55;4.68;;;;;;;;;;4967336;28;20038;-83
2023/04/30 08:15:57;;;;;;;8.00;4.57;;;;;;;;;;4998991;28;20034;-81
2023/04/30 08:18:23;;;;;;;8.77;5.23;;;;;;;;;;4980799;28;20487;-83
2023/04/30 08:20:48;;;;;;;6.82;5.22;;;;;;;;;;4981026;28;20368;-82
2023/04/30 08:23:15;;;;;;;5.07;4.55;;;;;;;;;;4981447;28;20058;-83
2023/04/30 08:25:43;;;;;;;7.78;4.80;;;;;;;;;;4989109;28;20030;-82
2023/04/30 08:28:09;;;;;;;12.70;7.33;;;;;;;;;;4979345;28;20053;-85
2023/04/30 08:30:34;;;;;;;8.40;7.00;;;;;;;;;;4972931;28;20352;-83
2023/04/30 08:32:59;;;;;;;8.68;6.68;;;;;;;;;;4983984;28;20112;-83
2023/04/30 08:35:25;;;;;;;6.18;5.57;;;;;;;;;;4985531;28;20410;-83
2023/04/30 08:37:50;;;;;;;7.07;5.15;;;;;;;;;;4977288;28;20041;-84
2023/04/30 08:40:16;;;;;;;10.02;5.70;;;;;;;;;;4997050;28;20484;-82
2023/04/30 08:42:45;;;;;;;7.13;4.95;;;;;;;;;;4985726;28;20024;-84
2023/04/30 08:45:10;;;;;;;5.40;4.18;;;;;;;;;;4985044;28;20597;-82
2023/04/30 08:47:37;;;;;;;6.55;4.80;;;;;;;;;;4983802;28;20212;-84
2023/04/30 08:50:02;;;;;;;5.07;4.32;;;;;;;;;;4984582;28;20804;-85
2023/04/30 08:52:28;;;;;;;6.78;4.93;;;;;;;;;;4985491;28;20024;-83
2023/04/30 08:54:56;;;;;;;11.63;6.95;;;;;;;;;;4985384;28;20033;-83
2023/04/30 08:57:21;;;;;;;12.15;5.63;;;;;;;;;;5003104;28;20051;-82
2023/04/30 08:59:46;;;;;;;8.87;6.37;;;;;;;;;;5002783;28;20491;-84
2023/04/30 09:02:12;;;;;;;11.52;6.65;;;;;;;;;;4985736;28;20249;-85
2023/04/30 09:04:37;;;;;;;11.05;7.32;;;;;;;;;;4985489;28;20033;-84
2023/04/30 09:07:03;;;;;;;7.10;5.35;;;;;;;;;;5003009;28;20348;-83
2023/04/30 09:09:29;;;;;;;8.50;5.72;;;;;;;;;;4984982;28;20494;-81
2023/04/30 09:12:11;;;;;;;6.55;5.90;;;;;;;;;;4985307;28;20014;-83
2023/04/30 09:14:39;;;;;;;14.73;6.65;;;;;;;;;;4984856;28;20841;-86
2023/04/30 09:17:04;;;;;;;11.20;6.13;;;;;;;;;;4971590;28;20481;-84
2023/04/30 09:19:30;;;;;;;8.18;6.25;;;;;;;;;;5002843;28;20018;-82
2023/04/30 09:21:56;;;;;;;10.95;6.82;;;;;;;;;;4985260;28;20037;-82
2023/04/30 09:24:21;;;;;;;29.33;12.05;;;;;;;;;;5002895;28;20029;-84
2023/04/30 09:26:47;;;;;;;10.75;7.47;;;;;;;;;;4984330;28;20022;-82
2023/04/30 09:29:12;;;;;;;11.82;6.20;;;;;;;;;;4984782;28;20030;-81
2023/04/30 09:31:38;;;;;;;7.72;5.60;;;;;;;;;;4984408;28;20021;-81
2023/04/30 09:34:04;;;;;;;6.95;4.90;;;;;;;;;;4984843;28;20109;-82
2023/04/30 09:36:30;;;;;;;8.32;4.68;;;;;;;;;;4984594;28;20624;-83
2023/04/30 09:38:55;;;;;;;7.80;5.00;;;;;;;;;;4984321;28;20037;-85
2023/04/30 09:41:22;;;;;;;7.20;5.70;;;;;;;;;;4985253;28;20021;-84
2023/04/30 09:43:47;;;;;;;14.95;6.30;;;;;;;;;;4983701;28;20022;-84
2023/04/30 09:46:13;;;;;;;10.35;5.68;;;;;;;;;;4984556;28;20414;-83
2023/04/30 09:48:40;;;;;;;5.15;4.60;;;;;;;;;;5001430;28;20108;-85
2023/04/30 09:51:05;;;;;;;12.60;6.53;;;;;;;;;;5002070;28;20025;-84
2023/04/30 09:53:31;;;;;;;7.10;6.00;;;;;;;;;;4984283;28;20478;-82
2023/04/30 09:55:57;;;;;;;6.00;5.40;;;;;;;;;;4984125;28;20677;-85
2023/04/30 09:58:26;;;;;;;23.48;8.20;;;;;;;;;;5002196;28;20476;-83
2023/04/30 10:00:52;;;;;;;12.27;7.28;;;;;;;;;;5001290;28;20018;-85
2023/04/30 10:03:19;;;;;;;6.35;5.18;;;;;;;;;;5001783;28;20022;-82
2023/04/30 10:05:48;;;;;;;10.63;6.57;;;;;;;;;;4983937;28;20018;-84
2023/04/30 10:08:22;;;;;;;8.23;6.43;;;;;;;;;;4983784;28;20116;-83
2023/04/30 10:10:51;;;;;;;6.13;5.25;;;;;;;;;;4983881;28;20026;-83
2023/04/30 10:13:17;;;;;;;5.60;4.60;;;;;;;;;;4983722;28;20026;-84
2023/04/30 10:15:47;;;;;;;15.93;5.93;;;;;;;;;;5002051;28;20476;-83
2023/04/30 10:18:20;;;;;;;3.90;3.60;;;;;;;;;;4978649;28;20033;-82
2023/04/30 10:20:47;;;;;;;7.68;4.00;;;;;;;;;;4992657;28;20033;-83
2023/04/30 10:23:13;;;;;;;5.43;3.58;;;;;;;;;;4983401;28;20104;-85
2023/04/30 10:25:39;;;;;;;3.88;2.33;;;;;;;;;;4981813;28;20893;-83
2023/04/30 10:28:06;;;;;;;2.90;2.70;;;;;;;;;;5002275;28;20133;-84
2023/04/30 10:30:33;;;;;;;3.33;2.67;;;;;;;;;;4983779;28;20018;-84
2023/04/30 10:33:14;;;;;;;3.83;1.10;;;;;;;;;;5002681;28;20030;-84
2023/04/30 10:35:44;;;;;;;1.10;1.10;;;;;;;;;;4980186;28;20399;-88
2023/04/30 10:38:16;;;;;;;3.17;1.40;;;;;;;;;;4983569;28;20419;-83
2023/04/30 10:40:45;;;;;;;3.72;1.60;;;;;;;;;;4972237;28;20057;-88
2023/04/30 10:43:17;;;;;;;1.60;1.50;;;;;;;;;;4983573;28;20033;-85
2023/04/30 10:45:42;;;;;;;3.22;1.88;;;;;;;;;;4972577;28;20018;-86
2023/04/30 10:48:08;;;;;;;1.88;1.77;;;;;;;;;;4980882;28;20042;-87
2023/04/30 10:50:39;;;;;;;2.08;1.88;;;;;;;;;;4979734;28;20133;-86
2023/04/30 10:53:05;;;;;;;1.75;1.60;;;;;;;;;;4999539;28;20037;-85
2023/04/30 10:55:32;;;;;;;1.40;1.30;;;;;;;;;;4981132;28;20017;-87
2023/04/30 10:57:58;;;;;;;2.10;1.90;;;;;;;;;;4999897;28;20071;-84
2023/04/30 11:00:27;;;;;;;2.35;1.80;;;;;;;;;;4982138;28;20045;-85
2023/04/30 11:02:57;;;;;;;2.15;1.92;;;;;;;;;;4977817;28;20024;-87
2023/04/30 11:05:33;;;;;;;2.97;2.78;;;;;;;;;;4979456;28;20114;-83
2023/04/30 11:07:58;;;;;;;3.80;3.30;;;;;;;;;;5005765;28;20056;-80
2023/04/30 11:10:25;;;;;;;3.50;3.20;;;;;;;;;;4971279;28;20026;-79
2023/04/30 11:12:51;;;;;;;2.35;1.90;;;;;;;;;;5000136;28;20285;-80
2023/04/30 11:15:18;;;;;;;2.65;2.03;;;;;;;;;;4999974;28;20026;-80
2023/04/30 11:17:47;;;;;;;1.83;1.73;;;;;;;;;;4982794;28;20022;-79
2023/04/30 11:20:13;;;;;;;6.28;2.33;;;;;;;;;;4982473;28;20033;-80
2023/04/30 11:22:38;;;;;;;3.67;1.85;;;;;;;;;;5000049;28;20109;-81
2023/04/30 11:25:05;;;;;;;1.63;1.50;;;;;;;;;;5000412;28;20104;-82
2023/04/30 11:27:34;;;;;;;34.92;2.97;;;;;;;;;;4999643;28;20037;-80
2023/04/30 11:30:00;;;;;;;2.03;1.90;;;;;;;;;;4999811;28;20417;-81
2023/04/30 11:32:30;;;;;;;2.50;1.67;;;;;;;;;;4982312;28;20022;-82
2023/04/30 11:34:56;;;;;;;3.95;1.98;;;;;;;;;;4974561;28;20029;-79
2023/04/30 11:37:28;;;;;;;3.28;2.72;;;;;;;;;;4976196;28;20021;-82
2023/04/30 11:39:53;;;;;;;3.42;3.13;;;;;;;;;;4986831;28;20044;-80
2023/04/30 11:42:20;;;;;;;4.53;3.65;;;;;;;;;;4982407;28;20030;-78
2023/04/30 11:44:45;;;;;;;4.47;3.67;;;;;;;;;;4980781;28;20943;-77
2023/04/30 11:47:14;;;;;;;4.70;3.83;;;;;;;;;;4998341;28;20037;-79
2023/04/30 11:49:39;;;;;;;4.10;3.70;;;;;;;;;;4978526;28;20057;-80
2023/04/30 11:52:05;;;;;;;4.00;3.70;;;;;;;;;;4969815;28;20026;-79
2023/04/30 11:54:31;;;;;;;5.50;3.97;;;;;;;;;;4979995;28;20549;-79
2023/04/30 11:57:02;;;;;;;4.35;4.05;;;;;;;;;;4974752;28;20057;-78
2023/04/30 11:59:27;;;;;;;4.85;3.80;;;;;;;;;;4980282;28;20034;-77
2023/04/30 12:01:53;;;;;;;4.15;3.85;;;;;;;;;;4979979;28;20073;-78
2023/04/30 12:04:18;;;;;;;4.67;3.70;;;;;;;;;;4978761;28;20523;-77
2023/04/30 12:06:44;;;;;;;4.15;3.88;;;;;;;;;;4983106;28;20321;-76
2023/04/30 12:09:10;;;;;;;4.93;4.63;;;;;;;;;;4983528;28;20046;-77
2023/04/30 12:11:37;;;;;;;4.75;4.35;;;;;;;;;;4982713;28;20022;-77
2023/04/30 12:14:04;;;;;;;4.65;4.10;;;;;;;;;;4984433;28;20021;-77
2023/04/30 12:16:39;;;;;;;3.65;3.35;;;;;;;;;;4983715;28;20022;-77
2023/04/30 12:19:04;;;;;;;4.20;3.80;;;;;;;;;;4984575;28;20425;-77
2023/04/30 12:21:31;;;;;;;2.65;2.47;;;;;;;;;;4983256;28;20054;-77
2023/04/30 12:23:57;;;;;;;2.85;2.65;;;;;;;;;;4984600;28;20034;-77
2023/04/30 12:26:23;;;;;;;3.25;2.95;;;;;;;;;;4983109;28;20030;-77
2023/04/30 12:28:48;;;;;;;2.63;2.42;;;;;;;;;;4984259;28;20030;-76
2023/04/30 12:31:16;;;;;;;2.67;2.47;;;;;;;;;;4983614;28;20025;-77
2023/04/30 12:33:41;;;;;;;2.33;2.13;;;;;;;;;;4984724;28;20077;-78
2023/04/30 12:36:10;;;;;;;2.38;1.83;;;;;;;;;;4983125;28;20022;-79
2023/04/30 12:38:35;;;;;;;3.92;1.95;;;;;;;;;;4981994;28;20055;-78
2023/04/30 12:41:03;;;;;;;1.80;1.60;;;;;;;;;;4983572;28;20030;-78
2023/04/30 12:43:28;;;;;;;4.43;1.65;;;;;;;;;;4984178;28;20426;-77
2023/04/30 12:45:55;;;;;;;1.80;1.70;;;;;;;;;;4982113;28;20135;-78
2023/04/30 12:48:24;;;;;;;3.83;1.50;;;;;;;;;;4989981;28;20173;-78
2023/04/30 12:50:49;;;;;;;1.30;1.20;;;;;;;;;;4986117;28;20026;-78
2023/04/30 12:53:14;;;;;;;5.72;2.20;;;;;;;;;;5003609;28;20494;-77
2023/04/30 12:55:41;;;;;;;1.70;1.60;;;;;;;;;;5003849;28;20435;-78
2023/04/30 12:58:07;;;;;;;1.50;1.35;;;;;;;;;;5003872;28;20040;-79
2023/04/30 13:01:02;;;;;;;4.18;2.55;;;;;;;;;;4985662;28;20026;-77
2023/04/30 13:03:27;;;;;;;1.10;1.00;;;;;;;;;;4985691;28;20025;-78
2023/04/30 13:05:53;;;;;;;2.10;0.93;;;;;;;;;;4984458;28;20041;-78
2023/04/30 13:08:19;;;;;;;1.17;0.80;;;;;;;;;;4991311;28;20017;-78
2023/04/30 13:10:45;;;;;;;1.23;1.13;;;;;;;;;;5001744;28;20017;-78
2023/04/30 13:13:12;;;;;;;1.00;0.90;;;;;;;;;;4975190;28;20022;-78
2023/04/30 13:15:37;;;;;;;0.80;0.80;;;;;;;;;;4976952;28;20029;-78
2023/04/30 13:18:02;;;;;;;0.70;0.70;;;;;;;;;;4983942;28;20030;-79
2023/04/30 13:20:28;;;;;;;0.98;0.70;;;;;;;;;;4984013;28;20014;-79
2023/04/30 13:22:54;;;;;;;2.97;0.60;;;;;;;;;;5002440;28;20036;-79
2023/04/30 13:25:19;;;;;;;1.42;0.65;;;;;;;;;;4983933;28;20683;-79
2023/04/30 13:27:44;;;;;;;1.30;0.67;;;;;;;;;;5002153;28;20045;-78
2023/04/30 13:30:10;;;;;;;0.60;0.60;;;;;;;;;;4983830;28;20520;-78
2023/04/30 13:32:36;;;;;;;2.25;0.70;;;;;;;;;;4984529;28;20071;-78
2023/04/30 13:35:01;;;;;;;1.02;0.70;;;;;;;;;;4984089;28;20193;-79
2023/04/30 13:37:27;;;;;;;1.42;0.60;;;;;;;;;;4984140;28;20018;-78
2023/04/30 13:39:52;;;;;;;0.68;0.60;;;;;;;;;;5002209;28;20638;-78
2023/04/30 13:42:17;;;;;;;1.00;0.50;;;;;;;;;;4984185;28;20021;-78
2023/04/30 13:44:44;;;;;;;0.65;0.63;;;;;;;;;;4983845;28;20061;-77
2023/04/30 13:47:10;;;;;;;1.08;0.80;;;;;;;;;;5001966;28;20053;-77
2023/04/30 13:49:35;;;;;;;0.70;0.70;;;;;;;;;;4983468;28;20076;-78
2023/04/30 13:52:01;;;;;;;0.77;0.73;;;;;;;;;;5001799;28;20037;-78
2023/04/30 13:54:27;;;;;;;0.80;0.80;;;;;;;;;;5000951;28;20034;-77
2023/04/30 13:56:52;;;;;;;1.50;1.33;;;;;;;;;;5002143;28;20036;-77
2023/04/30 13:59:17;;;;;;;0.70;0.70;;;;;;;;;;4983655;28;20376;-76
2023/04/30 14:01:43;;;;;;;0.70;0.70;;;;;;;;;;4981269;28;20033;-77
2023/04/30 14:04:08;;;;;;;1.70;0.80;;;;;;;;;;5001087;28;20026;-77
2023/04/30 14:06:33;;;;;;;0.70;0.70;;;;;;;;;;5001281;28;20852;-78
2023/04/30 14:08:59;;;;;;;1.30;0.70;;;;;;;;;;4983644;28;20026;-77
2023/04/30 14:11:26;;;;;;;1.10;1.00;;;;;;;;;;4978320;28;20513;-78
2023/04/30 14:13:51;;;;;;;1.13;1.02;;;;;;;;;;4974847;28;20514;-80
2023/04/30 14:16:18;;;;;;;3.35;1.15;;;;;;;;;;4983205;28;20128;-78
2023/04/30 14:18:43;;;;;;;0.90;0.90;;;;;;;;;;5001372;28;20510;-77
2023/04/30 14:21:09;;;;;;;0.80;0.80;;;;;;;;;;5001078;28;20018;-77
2023/04/30 14:23:34;;;;;;;1.88;1.20;;;;;;;;;;4982877;28;20149;-77
2023/04/30 14:25:59;;;;;;;1.00;1.00;;;;;;;;;;4983299;28;20032;-76
2023/04/30 14:28:25;;;;;;;2.08;1.33;;;;;;;;;;4983475;28;20056;-76
2023/04/30 14:30:50;;;;;;;1.10;1.10;;;;;;;;;;4982628;28;20491;-76
2023/04/30 14:33:15;;;;;;;2.73;1.30;;;;;;;;;;4983074;28;20281;-76